Time;durP1;ratioP1;P1;durP2;ratioP2;P2;SDS_P1;SDS_P2;PMS_P1;PMS_P2;Temp;Humidity;BMP_temperature;BMP_pressure;BME280_temperature;BME280_humidity;BME280_pressure;Samples;Min_cycle;Max_cycle;Signal;HPM_P1;HPM_P2
2022/08/17 00:01:18;;;;;;;6.93;5.57;;;17.80;1.00;;;;;;5110584;28;20254;-90
2022/08/17 00:04:10;;;;;;;6.25;5.20;;;17.60;1.00;;;;;;5114309;28;20040;-89
2022/08/17 00:06:57;;;;;;;8.02;5.50;;;17.40;1.00;;;;;;5092562;28;20144;-89
2022/08/17 00:09:45;;;;;;;8.13;5.53;;;17.30;1.00;;;;;;5099992;28;20055;-90
2022/08/17 00:12:42;;;;;;;10.13;5.63;;;17.10;1.00;;;;;;5104300;28;20075;-87
2022/08/17 00:15:33;;;;;;;8.18;6.22;;;17.10;1.00;;;;;;5095391;28;20047;-85
2022/08/17 00:18:22;;;;;;;6.15;5.50;;;16.90;1.00;;;;;;5114723;28;20059;-87
2022/08/17 00:21:30;;;;;;;8.05;5.68;;;16.80;2.00;;;;;;5110040;28;20048;-87
2022/08/17 00:24:37;;;;;;;7.18;5.97;;;16.80;11.50;;;;;;5121208;27;20053;-90
2022/08/17 00:27:24;;;;;;;9.38;5.85;;;16.60;21.00;;;;;;5105654;28;20055;-86
2022/08/17 00:30:13;;;;;;;7.38;6.15;;;16.60;30.50;;;;;;5100705;28;20040;-87
2022/08/17 00:33:06;;;;;;;8.23;6.57;;;16.50;52.80;;;;;;5107924;28;20056;-87
2022/08/17 00:36:10;;;;;;;9.75;6.65;;;16.50;87.20;;;;;;5100295;28;20046;-86
2022/08/17 00:38:57;;;;;;;10.23;6.47;;;16.50;96.70;;;;;;5113076;28;20098;-88
2022/08/17 00:41:44;;;;;;;7.70;6.60;;;16.50;99.90;;;;;;5110850;28;20108;-87
2022/08/17 00:44:31;;;;;;;7.57;5.47;;;16.40;99.90;;;;;;5102919;27;20075;-86
2022/08/17 00:47:18;;;;;;;6.20;5.60;;;16.40;99.90;;;;;;5120242;27;20070;-86
2022/08/17 00:50:09;;;;;;;7.95;7.15;;;16.50;95.50;;;;;;5117271;28;20056;-87
2022/08/17 00:52:59;;;;;;;8.25;6.43;;;16.50;98.80;;;;;;5088985;28;20048;-87
2022/08/17 00:55:49;;;;;;;9.60;6.72;;;16.50;99.80;;;;;;5101644;27;20081;-87
2022/08/17 00:58:37;;;;;;;8.40;7.00;;;16.40;99.90;;;;;;5099037;28;20116;-86
2022/08/17 01:01:25;;;;;;;13.68;7.00;;;16.40;99.90;;;;;;5096973;28;20055;-87
2022/08/17 01:04:16;;;;;;;9.93;7.13;;;16.40;99.90;;;;;;5115023;28;20571;-87
2022/08/17 01:07:05;;;;;;;7.35;6.45;;;16.40;99.90;;;;;;5105350;28;20120;-86
2022/08/17 01:09:56;;;;;;;9.05;6.65;;;16.40;99.90;;;;;;5113576;28;20534;-88
2022/08/17 01:12:43;;;;;;;12.48;6.38;;;16.40;99.90;;;;;;5109929;28;20057;-86
2022/08/17 01:15:34;;;;;;;9.05;6.60;;;16.50;99.90;;;;;;5110040;28;20051;-87
2022/08/17 01:18:25;;;;;;;9.60;7.18;;;16.70;99.90;;;;;;5100966;28;20040;-85
2022/08/17 01:21:26;;;;;;;8.93;6.38;;;16.80;78.60;;;;;;5109749;28;20047;-87
2022/08/17 01:24:13;;;;;;;12.23;7.00;;;16.80;52.80;;;;;;5120251;28;20059;-88
2022/08/17 01:27:01;;;;;;;8.95;6.88;;;16.80;52.10;;;;;;5105398;28;20047;-86
2022/08/17 01:30:00;;;;;;;11.85;7.22;;;16.70;53.60;;;;;;5096798;28;20044;-87
2022/08/17 01:32:47;;;;;;;9.38;6.35;;;16.70;62.20;;;;;;5106845;28;20059;-86
2022/08/17 01:35:35;;;;;;;9.15;6.85;;;16.80;68.10;;;;;;5108818;28;20039;-87
2022/08/17 01:38:23;;;;;;;8.15;6.60;;;16.80;61.80;;;;;;5094984;28;20450;-88
2022/08/17 01:41:17;;;;;;;8.73;5.78;;;16.80;68.20;;;;;;5104362;28;20071;-88
2022/08/17 01:44:06;;;;;;;9.80;5.95;;;16.90;75.30;;;;;;5114330;28;20062;-87
2022/08/17 01:46:53;;;;;;;8.68;6.25;;;16.80;78.70;;;;;;5114271;28;20039;-87
2022/08/17 01:49:41;;;;;;;7.95;5.97;;;16.70;81.30;;;;;;5115027;28;20105;-85
2022/08/17 01:52:29;;;;;;;8.93;6.50;;;16.70;84.40;;;;;;5117788;28;20043;-85
2022/08/17 01:55:20;;;;;;;8.93;6.47;;;16.60;97.20;;;;;;5121738;27;20064;-81
2022/08/17 01:58:13;;;;;;;9.30;6.97;;;16.50;99.90;;;;;;5134005;28;20058;-88
2022/08/17 02:01:05;;;;;;;10.07;6.97;;;16.50;99.90;;;;;;5130628;28;20055;-87
2022/08/17 02:03:55;;;;;;;11.27;6.82;;;16.70;99.90;;;;;;5113671;28;20051;-87
2022/08/17 02:06:47;;;;;;;6.70;6.00;;;16.80;93.10;;;;;;5105338;28;20120;-89
2022/08/17 02:09:40;;;;;;;7.85;6.47;;;16.90;91.80;;;;;;5117595;28;20170;-87
2022/08/17 02:12:30;;;;;;;10.38;7.28;;;16.90;92.00;;;;;;5114092;27;20043;-86
2022/08/17 02:15:33;;;;;;;9.90;6.60;;;17.00;87.20;;;;;;5111572;27;20497;-87
2022/08/17 02:18:24;;;;;;;7.28;6.50;;;17.00;92.20;;;;;;5100291;28;20288;-87
2022/08/17 02:21:14;;;;;;;10.05;5.90;;;16.90;94.80;;;;;;5113106;28;20100;-86
2022/08/17 02:24:02;;;;;;;7.97;6.13;;;16.80;93.70;;;;;;5103183;28;20143;-86
2022/08/17 02:26:51;;;;;;;8.38;7.50;;;16.90;96.00;;;;;;5104598;28;20059;-85
2022/08/17 02:29:38;;;;;;;10.52;7.28;;;16.90;87.50;;;;;;5106280;28;20060;-87
2022/08/17 02:32:26;;;;;;;8.15;6.95;;;16.80;87.70;;;;;;5113811;28;20065;-87
2022/08/17 02:35:14;;;;;;;9.40;6.72;;;16.60;94.60;;;;;;5121827;27;20051;-85
2022/08/17 02:38:06;;;;;;;10.57;7.72;;;16.50;99.90;;;;;;5112429;28;20122;-86
2022/08/17 02:40:53;;;;;;;9.23;7.55;;;16.50;99.90;;;;;;5104315;28;20039;-87
2022/08/17 02:43:44;;;;;;;9.25;7.10;;;16.50;99.90;;;;;;5091576;28;20056;-84
2022/08/17 02:46:33;;;;;;;9.93;6.90;;;16.40;99.90;;;;;;5098507;28;20390;-87
2022/08/17 02:49:20;;;;;;;9.80;7.13;;;16.30;99.90;;;;;;5103578;28;20162;-87
2022/08/17 02:52:08;;;;;;;14.43;8.13;;;16.20;99.90;;;;;;5109714;28;20040;-86
2022/08/17 02:54:55;;;;;;;11.77;9.18;;;16.10;99.90;;;;;;5084357;28;20044;-88
2022/08/17 02:57:45;;;;;;;10.38;8.57;;;16.20;99.90;;;;;;5103012;28;20051;-88
2022/08/17 03:00:41;;;;;;;12.70;8.73;;;16.20;99.90;;;;;;5110176;28;20516;-87
2022/08/17 03:03:28;;;;;;;12.38;8.93;;;16.10;99.90;;;;;;5107439;28;20048;-86
2022/08/17 03:06:15;;;;;;;10.85;8.50;;;16.10;99.90;;;;;;5100250;28;20128;-86
2022/08/17 03:09:03;;;;;;;15.98;8.05;;;16.20;99.90;;;;;;5116066;28;20071;-87
2022/08/17 03:11:50;;;;;;;12.93;8.25;;;16.30;99.90;;;;;;5121389;28;20059;-87
2022/08/17 03:14:42;;;;;;;9.80;7.60;;;16.30;99.90;;;;;;5103508;28;20044;-87
2022/08/17 03:17:29;;;;;;;8.88;7.15;;;16.40;99.90;;;;;;5111995;28;20481;-85
2022/08/17 03:20:20;;;;;;;8.20;7.40;;;16.40;99.90;;;;;;5107084;28;20047;-87
2022/08/17 03:23:09;;;;;;;8.50;7.20;;;16.60;99.90;;;;;;5100610;28;20048;-88
2022/08/17 03:25:57;;;;;;;9.48;7.57;;;16.80;99.90;;;;;;5097892;28;20043;-87
2022/08/17 03:28:45;;;;;;;13.73;7.25;;;16.90;99.90;;;;;;5090155;28;20068;-88
2022/08/17 03:31:32;;;;;;;9.65;7.07;;;16.80;99.90;;;;;;5109457;28;20441;-88
2022/08/17 03:34:25;;;;;;;10.55;6.60;;;16.80;99.90;;;;;;5112889;28;20031;-88
2022/08/17 03:37:13;;;;;;;11.65;7.38;;;16.70;99.90;;;;;;5104793;28;20141;-88
2022/08/17 03:40:03;;;;;;;8.05;7.25;;;16.60;99.90;;;;;;5107997;28;20131;-88
2022/08/17 03:42:53;;;;;;;8.32;7.00;;;16.60;99.90;;;;;;5108214;28;20140;-88
2022/08/17 03:58:22;;;;;;;9.57;6.65;;;16.90;55.10;;;;;;5116587;28;20079;-83
2022/08/17 04:01:32;;;;;;;9.35;6.72;;;16.80;58.50;;;;;;5116883;28;20149;-86
2022/08/17 04:04:19;;;;;;;12.00;6.05;;;16.70;61.00;;;;;;5114735;27;20324;-87
2022/08/17 04:07:13;;;;;;;7.90;6.30;;;16.60;73.10;;;;;;5133088;28;20058;-87
2022/08/17 04:10:00;;;;;;;10.65;6.60;;;16.50;81.00;;;;;;5123556;28;20047;-86
2022/08/17 04:12:51;;;;;;;7.22;5.97;;;16.50;90.30;;;;;;5109554;28;20054;-88
2022/08/17 04:15:39;;;;;;;9.30;6.50;;;16.40;94.30;;;;;;5112270;27;20055;-86
2022/08/17 04:18:26;;;;;;;8.68;6.75;;;16.20;99.90;;;;;;5134753;27;20044;-85
2022/08/17 04:21:13;;;;;;;9.50;6.53;;;16.20;99.90;;;;;;5119344;28;20040;-84
2022/08/17 04:24:04;;;;;;;9.65;6.40;;;16.10;99.90;;;;;;5114504;27;20097;-85
2022/08/17 04:26:51;;;;;;;9.25;6.88;;;16.30;99.90;;;;;;5134242;27;20035;-85
2022/08/17 04:29:40;;;;;;;11.20;7.75;;;16.30;99.90;;;;;;5119104;27;20050;-87
2022/08/17 04:33:10;;;;;;;7.57;6.65;;;16.30;99.90;;;;;;5131852;27;20043;-85
2022/08/17 04:36:01;;;;;;;11.45;7.57;;;16.50;99.90;;;;;;5138483;27;20035;-85
2022/08/17 04:38:51;;;;;;;13.50;8.50;;;16.60;99.90;;;;;;5115897;28;20048;-84
2022/08/17 04:44:44;;;;;;;11.57;7.47;;;16.90;88.90;;;;;;5113484;27;20112;-86
2022/08/17 04:47:33;;;;;;;9.63;7.00;;;17.10;70.70;;;;;;5115444;27;20051;-86
2022/08/17 04:50:20;;;;;;;8.20;6.70;;;17.10;62.60;;;;;;5121941;28;20043;-85
2022/08/17 04:53:20;;;;;;;8.98;6.72;;;17.20;58.40;;;;;;5128545;28;20097;-88
2022/08/17 04:56:08;;;;;;;14.98;7.10;;;17.30;54.20;;;;;;5111573;27;20028;-88
2022/08/17 04:59:11;;;;;;;8.98;6.30;;;17.50;48.10;;;;;;5120885;27;20040;-86
2022/08/17 05:01:58;;;;;;;9.05;5.90;;;17.60;36.40;;;;;;5114781;27;20075;-85
2022/08/17 05:04:45;;;;;;;9.10;6.28;;;17.80;41.60;;;;;;5110202;28;20043;-86
2022/08/17 05:07:32;;;;;;;8.43;6.43;;;17.90;21.80;;;;;;5119469;27;20462;-86
2022/08/17 05:10:31;;;;;;;7.97;6.18;;;18.10;14.40;;;;;;5111752;28;20043;-88
2022/08/17 05:13:22;;;;;;;9.05;6.30;;;18.30;3.20;;;;;;5107218;28;20121;-86
2022/08/17 05:16:10;;;;;;;9.35;6.70;;;18.30;1.00;;;;;;5112697;27;20055;-84
2022/08/17 05:18:58;;;;;;;10.05;7.72;;;18.20;5.60;;;;;;5108676;27;20362;-85
2022/08/17 05:21:45;;;;;;;10.40;6.50;;;18.00;7.20;;;;;;5096475;27;20043;-86
2022/08/17 05:24:33;;;;;;;9.63;6.18;;;17.90;13.80;;;;;;5096961;27;20055;-87
2022/08/17 05:27:31;;;;;;;10.27;6.65;;;17.90;22.20;;;;;;5110605;27;20044;-86
2022/08/17 05:30:23;;;;;;;9.90;6.85;;;18.00;33.50;;;;;;5096933;28;20048;-86
2022/08/17 05:33:12;;;;;;;6.82;5.97;;;18.00;37.10;;;;;;5103900;27;20332;-86
2022/08/17 05:36:00;;;;;;;9.98;5.85;;;18.10;37.80;;;;;;5116825;27;20502;-87
2022/08/17 05:38:48;;;;;;;7.57;5.93;;;18.30;31.70;;;;;;5121748;27;20039;-88
2022/08/17 05:41:35;;;;;;;10.52;5.93;;;18.40;20.30;;;;;;5112655;28;20310;-89
2022/08/17 05:44:22;;;;;;;8.48;6.30;;;18.50;8.00;;;;;;5122282;27;20051;-87
2022/08/17 05:47:11;;;;;;;8.25;6.45;;;18.70;7.10;;;;;;5112507;28;20323;-85
2022/08/17 05:50:00;;;;;;;7.90;7.10;;;18.70;9.50;;;;;;5110755;27;20079;-87
2022/08/17 05:53:03;;;;;;;9.85;6.70;;;18.60;11.70;;;;;;5098584;28;20472;-90
2022/08/17 05:56:04;;;;;;;12.52;7.18;;;18.50;4.80;;;;;;5115187;28;20090;-90
2022/08/17 05:59:34;;;;;;;8.25;6.22;;;18.60;9.70;;;;;;5098817;28;20047;-87
2022/08/17 06:02:51;;;;;;;8.93;7.30;;;18.60;2.90;;;;;;5083084;28;20066;-90
2022/08/17 06:06:13;;;;;;;8.50;6.90;;;18.80;1.00;;;;;;5104113;28;20076;-87
2022/08/17 06:09:19;;;;;;;8.27;6.65;;;19.00;1.00;;;;;;5105110;27;20043;-87
2022/08/17 06:12:30;;;;;;;8.02;6.97;;;19.20;1.00;;;;;;5109035;27;20546;-83
2022/08/17 06:16:00;;;;;;;10.05;7.00;;;19.40;1.00;;;;;;5102510;28;20035;-86
2022/08/17 06:19:01;;;;;;;12.20;6.82;;;19.70;1.00;;;;;;5006001;28;20050;-87
2022/08/17 06:21:51;;;;;;;10.50;6.28;;;19.90;1.00;;;;;;5130710;27;20097;-89
2022/08/17 06:24:55;;;;;;;12.00;6.25;;;20.10;1.00;;;;;;5118539;27;20040;-88
2022/08/17 06:27:50;;;;;;;11.13;6.00;;;20.30;1.00;;;;;;5113347;27;20055;-87
2022/08/17 06:30:49;;;;;;;9.93;5.68;;;20.50;1.00;;;;;;5114096;27;20088;-90
2022/08/17 06:33:47;;;;;;;6.60;5.38;;;20.90;1.00;;;;;;5115620;27;20347;-88
2022/08/17 06:36:47;;;;;;;7.78;5.88;;;21.30;1.00;;;;;;5119795;27;20080;-88
2022/08/17 06:39:51;;;;;;;9.43;6.28;;;21.60;1.00;;;;;;5111270;27;20100;-86
2022/08/17 06:42:52;;;;;;;10.43;5.60;;;21.70;1.00;;;;;;5100635;27;20069;-86
2022/08/17 06:46:41;;;;;;;10.13;5.45;;;21.90;1.00;;;;;;5101375;28;20222;-83
2022/08/17 06:49:50;;;;;;;9.00;5.10;;;22.00;1.00;;;;;;5114505;27;20047;-87
2022/08/17 06:53:02;;;;;;;9.48;5.28;;;22.20;1.00;;;;;;5120718;27;20054;-85
2022/08/17 06:56:07;;;;;;;8.80;5.65;;;22.50;1.00;;;;;;5113223;28;20047;-88
2022/08/17 06:58:58;;;;;;;11.07;5.35;;;22.70;1.00;;;;;;5101917;28;20454;-87
2022/08/17 07:01:48;;;;;;;7.20;5.03;;;22.70;1.00;;;;;;5118131;27;20047;-87
2022/08/17 07:04:35;;;;;;;11.10;6.00;;;22.90;1.00;;;;;;5101967;28;20048;-87
2022/08/17 07:10:46;;;;;;;5.45;4.90;;;23.40;1.00;;;;;;5113291;27;20040;-85
2022/08/17 07:14:04;;;;;;;7.82;5.18;;;23.70;1.00;;;;;;5106329;27;20036;-85
2022/08/17 07:16:55;;;;;;;7.45;5.20;;;24.10;1.00;;;;;;5120304;27;20040;-88
2022/08/17 07:19:44;;;;;;;6.80;5.00;;;24.20;1.00;;;;;;5114468;27;20355;-88
2022/08/17 07:22:43;;;;;;;8.45;4.95;;;24.80;1.00;;;;;;5114884;28;20374;-85
2022/08/17 07:25:46;;;;;;;7.22;4.80;;;25.40;1.00;;;;;;5110651;28;20040;-86
2022/08/17 07:28:37;;;;;;;7.72;5.20;;;25.40;1.00;;;;;;5109200;27;20052;-86
2022/08/17 07:31:27;;;;;;;8.45;4.60;;;25.60;1.00;;;;;;5109237;28;20055;-87
2022/08/17 07:34:14;;;;;;;6.70;4.35;;;25.20;1.00;;;;;;5099677;27;20132;-86
2022/08/17 07:37:04;;;;;;;6.82;4.45;;;25.40;1.00;;;;;;5122057;27;20035;-89
2022/08/17 07:39:51;;;;;;;7.68;4.38;;;25.60;1.00;;;;;;5098994;28;20044;-86
2022/08/17 07:43:10;;;;;;;7.20;5.30;;;25.90;1.00;;;;;;5114651;27;20184;-84
2022/08/17 07:49:38;;;;;;;5.45;4.90;;;24.90;1.00;;;;;;5115016;28;20144;-85
2022/08/17 07:52:32;;;;;;;5.95;4.93;;;24.60;1.00;;;;;;5104595;27;20052;-83
2022/08/17 07:55:40;;;;;;;8.40;4.47;;;24.50;1.00;;;;;;5117373;28;20060;-84
2022/08/17 07:58:27;;;;;;;5.90;4.70;;;24.70;1.00;;;;;;5126194;27;20044;-87
2022/08/17 08:01:17;;;;;;;5.70;4.60;;;25.20;1.00;;;;;;5120245;27;20058;-84
2022/08/17 08:04:28;;;;;;;5.72;4.40;;;25.40;1.00;;;;;;5123574;27;20374;-83
2022/08/17 08:07:41;;;;;;;4.55;3.75;;;25.00;1.00;;;;;;5109157;28;20523;-86
2022/08/17 08:10:42;;;;;;;4.95;3.88;;;24.50;1.00;;;;;;5119366;27;20123;-86
2022/08/17 08:13:32;;;;;;;5.38;4.30;;;24.30;1.00;;;;;;5117088;27;20062;-86
2022/08/17 08:16:28;;;;;;;6.32;3.80;;;24.10;1.00;;;;;;5103113;27;20062;-86
2022/08/17 08:19:16;;;;;;;4.53;3.70;;;24.00;1.00;;;;;;5118516;27;20039;-85
2022/08/17 08:22:17;;;;;;;5.63;4.18;;;23.90;1.00;;;;;;5121913;27;20128;-87
2022/08/17 08:25:45;;;;;;;6.30;3.95;;;23.80;1.00;;;;;;5120138;27;20052;-89
2022/08/17 08:28:55;;;;;;;7.82;4.03;;;23.70;1.00;;;;;;5051986;28;20052;-90
2022/08/17 08:32:35;;;;;;;4.75;3.83;;;23.60;1.00;;;;;;5122397;27;20097;-90
2022/08/17 08:35:37;;;;;;;5.47;4.43;;;23.40;1.00;;;;;;5052852;28;20037;-84
2022/08/17 08:38:59;;;;;;;7.33;4.63;;;23.00;1.00;;;;;;5050199;28;20081;-86
2022/08/17 08:42:32;;;;;;;5.78;4.53;;;22.60;1.00;;;;;;5127346;28;20285;-87
2022/08/17 08:45:37;;;;;;;6.15;4.47;;;22.50;1.00;;;;;;5112710;28;20073;-88
2022/08/17 08:48:44;;;;;;;6.65;4.25;;;22.50;1.00;;;;;;5100301;28;20398;-88
2022/08/17 08:51:55;;;;;;;5.68;4.00;;;22.70;1.00;;;;;;5117477;27;20048;-87
2022/08/17 08:55:07;;;;;;;4.95;4.03;;;22.80;1.00;;;;;;5114927;27;20054;-84
2022/08/17 08:58:06;;;;;;;6.05;4.57;;;22.90;1.00;;;;;;5120986;27;20044;-88
2022/08/17 09:01:31;;;;;;;6.78;5.00;;;22.80;1.00;;;;;;5100783;27;20043;-90
2022/08/17 09:04:56;;;;;;;8.88;4.53;;;22.70;1.00;;;;;;5116753;27;20374;-90
2022/08/17 09:08:17;;;;;;;6.93;5.22;;;22.60;1.00;;;;;;5117529;27;20043;-86
2022/08/17 09:11:21;;;;;;;6.63;5.28;;;22.50;1.00;;;;;;5109968;27;20129;-83
2022/08/17 09:14:24;;;;;;;9.13;5.30;;;22.30;1.00;;;;;;5112891;28;20039;-85
2022/08/17 09:17:18;;;;;;;7.47;5.50;;;21.80;1.00;;;;;;5119439;27;20079;-86
2022/08/17 09:20:17;;;;;;;7.03;5.93;;;21.40;1.00;;;;;;5113064;28;20044;-87
2022/08/17 09:23:29;;;;;;;10.15;6.50;;;21.30;1.00;;;;;;5115470;27;20483;-87
2022/08/17 09:26:24;;;;;;;13.70;6.03;;;21.20;1.00;;;;;;5107102;27;20040;-86
2022/08/17 09:29:14;;;;;;;10.07;6.63;;;21.20;1.00;;;;;;5113881;27;20047;-89
2022/08/17 09:32:18;;;;;;;9.48;7.00;;;21.20;34.30;;;;;;5112567;27;20118;-89
2022/08/17 09:35:35;;;;;;;10.65;7.60;;;21.00;99.90;;;;;;5100874;27;20451;-88
2022/08/17 09:38:32;;;;;;;14.60;8.43;;;20.60;99.90;;;;;;5100999;28;20051;-90
2022/08/17 09:41:32;;;;;;;9.52;7.40;;;20.30;99.90;;;;;;5118267;27;20148;-89
2022/08/17 09:44:28;;;;;;;14.20;6.97;;;20.10;1.00;;;;;;5101799;27;20054;-90
2022/08/17 09:47:32;;;;;;;12.40;7.32;;;20.10;99.90;;;;;;5117385;27;20047;-89
2022/08/17 09:50:44;;;;;;;13.40;7.45;;;20.20;99.90;;;;;;5116338;27;20040;-89
2022/08/17 09:53:51;;;;;;;10.65;7.10;;;20.40;99.90;;;;;;5101819;28;20058;-89
2022/08/17 09:56:59;;;;;;;9.95;6.70;;;20.70;99.90;;;;;;5108261;28;20324;-88
2022/08/17 10:00:15;;;;;;;10.70;6.43;;;21.30;99.90;;;;;;5107766;27;20067;-85
2022/08/17 10:03:15;;;;;;;11.55;7.20;;;22.20;99.90;;;;;;5092730;28;20052;-88
2022/08/17 10:06:32;;;;;;;7.97;5.60;;;22.70;99.90;;;;;;5113624;27;20109;-88
2022/08/17 10:09:28;;;;;;;8.73;6.43;;;23.00;96.00;;;;;;5112871;27;20451;-88
2022/08/17 10:12:49;;;;;;;14.52;6.15;;;23.30;99.90;;;;;;5116839;27;20061;-88
2022/08/17 10:16:05;;;;;;;9.52;5.35;;;23.80;23.60;;;;;;5113826;27;20344;-89
2022/08/17 10:19:04;;;;;;;10.23;4.80;;;23.80;1.40;;;;;;5100979;28;20054;-88
2022/08/17 10:28:47;;;;;;;6.10;4.28;;;24.00;1.00;;;;;;5112546;27;20101;-87
2022/08/17 10:31:57;;;;;;;5.03;4.53;;;23.50;1.00;;;;;;5105555;28;20395;-88
2022/08/17 10:34:59;;;;;;;8.10;4.32;;;23.00;1.00;;;;;;5098243;28;20466;-87
2022/08/17 10:38:11;;;;;;;9.50;5.20;;;22.80;1.00;;;;;;5113348;28;20055;-87
2022/08/17 10:41:04;;;;;;;;;;;22.70;1.00;;;;;;5113354;28;20142;-88
2022/08/17 10:44:08;;;;;;;5.90;4.50;;;22.70;1.00;;;;;;5108712;28;19919;-85
2022/08/17 10:47:17;;;;;;;7.88;5.57;;;22.80;1.00;;;;;;5117727;27;20043;-86
2022/08/17 10:50:43;;;;;;;7.15;5.13;;;22.90;3.20;;;;;;5091497;28;20039;-87
2022/08/17 10:53:31;;;;;;;9.40;4.90;;;22.90;11.60;;;;;;5133857;27;20190;-86
2022/08/17 10:56:21;;;;;;;8.68;4.18;;;22.90;1.00;;;;;;5112690;28;20048;-86
2022/08/17 10:59:08;;;;;;;5.57;4.50;;;22.90;1.00;;;;;;5125618;27;20497;-89
2022/08/17 11:02:11;;;;;;;5.78;4.30;;;22.70;1.00;;;;;;5107153;28;20047;-89
2022/08/17 11:05:19;;;;;;;5.47;3.95;;;22.50;1.00;;;;;;5117503;27;20036;-88
2022/08/17 11:08:27;;;;;;;8.35;4.63;;;22.30;1.00;;;;;;5109852;27;20071;-89
2022/08/17 11:11:52;;;;;;;6.13;4.18;;;22.10;1.00;;;;;;5101479;28;20489;-83
2022/08/17 11:14:56;;;;;;;6.60;4.70;;;21.70;1.00;;;;;;5097524;28;20040;-86
2022/08/17 11:18:02;;;;;;;8.85;4.20;;;21.40;1.00;;;;;;5116729;27;20035;-85
2022/08/17 11:21:19;;;;;;;6.07;4.97;;;21.00;15.50;;;;;;5119341;27;20044;-88
2022/08/17 11:24:26;;;;;;;7.03;4.50;;;20.80;28.30;;;;;;5116172;27;20096;-87
2022/08/17 11:27:30;;;;;;;7.25;5.25;;;20.70;58.20;;;;;;5105047;28;20052;-85
2022/08/17 11:30:43;;;;;;;10.02;5.32;;;20.60;97.40;;;;;;5111589;28;20044;-87
2022/08/17 11:33:31;;;;;;;6.50;5.05;;;20.70;99.90;;;;;;5096877;28;20161;-88
2022/08/17 11:36:28;;;;;;;6.28;5.05;;;20.50;99.90;;;;;;5107189;28;20036;-87
2022/08/17 11:39:41;;;;;;;8.07;6.47;;;20.50;99.90;;;;;;5098121;28;20055;-89
2022/08/17 11:42:55;;;;;;;10.63;6.40;;;20.50;99.90;;;;;;5118004;28;20035;-89
2022/08/17 11:45:51;;;;;;;9.18;6.10;;;20.40;99.90;;;;;;5104429;28;20097;-88
2022/08/17 11:51:59;;;;;;;8.10;5.80;;;20.60;99.90;;;;;;5114700;28;20062;-89
2022/08/17 11:54:47;;;;;;;9.35;5.30;;;20.80;99.90;;;;;;5107656;28;20040;-89
2022/08/17 11:57:43;;;;;;;6.30;5.68;;;21.10;99.90;;;;;;5112937;28;20055;-89
2022/08/17 12:00:45;;;;;;;7.97;4.97;;;21.60;99.90;;;;;;5110003;28;20043;-87
2022/08/17 12:03:32;;;;;;;6.72;5.00;;;22.00;67.20;;;;;;5099302;28;20063;-88
2022/08/17 12:06:29;;;;;;;8.05;5.05;;;22.10;19.10;;;;;;5100275;28;20048;-86
2022/08/17 12:09:30;;;;;;;5.95;4.80;;;22.20;78.60;;;;;;5107450;28;20043;-84
2022/08/17 12:12:34;;;;;;;8.52;5.68;;;22.10;82.60;;;;;;5112353;28;20043;-85
2022/08/17 12:15:36;;;;;;;6.72;5.32;;;22.20;99.90;;;;;;5111771;27;20036;-84
2022/08/17 12:18:34;;;;;;;8.77;5.53;;;22.20;99.90;;;;;;5117265;27;21192;-86
2022/08/17 12:21:27;;;;;;;7.70;4.95;;;22.40;98.40;;;;;;5137866;27;20155;-85
2022/08/17 12:24:38;;;;;;;7.70;4.68;;;22.60;49.90;;;;;;5126545;27;20100;-87
2022/08/17 12:27:32;;;;;;;8.70;5.30;;;22.80;37.70;;;;;;5121763;27;20081;-83
2022/08/17 12:30:49;;;;;;;6.18;4.78;;;22.80;31.10;;;;;;5137754;27;20048;-82
2022/08/17 12:33:45;;;;;;;6.90;3.97;;;23.40;42.60;;;;;;5113295;28;20118;-86
2022/08/17 12:36:34;;;;;;;7.97;3.60;;;25.30;4.20;;;;;;5122231;27;20129;-88
2022/08/17 12:39:22;;;;;;;5.78;3.70;;;26.50;1.00;;;;;;5123060;27;20036;-88
2022/08/17 12:42:25;;;;;;;5.78;3.90;;;27.30;1.00;;;;;;5111051;27;20109;-88
2022/08/17 12:45:28;;;;;;;5.55;3.33;;;28.20;1.00;;;;;;5126300;27;20378;-88
2022/08/17 12:48:22;;;;;;;4.50;3.30;;;29.40;1.00;;;;;;5121332;27;20113;-86
2022/08/17 12:51:12;;;;;;;3.90;3.20;;;30.70;1.00;;;;;;5109794;28;20043;-87
2022/08/17 12:54:00;;;;;;;3.10;2.80;;;32.10;1.00;;;;;;5115790;28;20478;-88
2022/08/17 12:56:50;;;;;;;3.95;3.00;;;33.10;1.00;;;;;;5114282;28;20054;-88
2022/08/17 12:59:54;;;;;;;4.43;2.65;;;33.60;1.00;;;;;;5093698;27;20375;-89
2022/08/17 13:02:46;;;;;;;3.60;2.60;;;33.90;1.00;;;;;;5116311;27;20459;-89
2022/08/17 13:05:37;;;;;;;;;;;34.60;1.00;;;;;;5116027;27;20443;-89
2022/08/17 13:08:27;;;;;;;3.75;2.50;;;35.50;99.90;;;;;;5107444;27;19930;-90
2022/08/17 13:11:17;;;;;;;3.40;2.30;;;36.00;99.90;;;;;;5112372;28;20044;-89
2022/08/17 13:14:09;;;;;;;3.10;2.60;;;36.30;99.90;;;;;;5110519;28;20105;-88
2022/08/17 13:16:59;;;;;;;4.22;3.00;;;36.60;99.90;;;;;;5106511;27;20054;-88
2022/08/17 13:19:49;;;;;;;5.55;2.50;;;34.20;99.90;;;;;;5126112;27;20043;-88
2022/08/17 13:22:37;;;;;;;4.93;3.00;;;32.50;99.90;;;;;;5126763;28;20112;-87
2022/08/17 13:25:26;;;;;;;4.50;3.00;;;31.70;99.90;;;;;;5098882;28;20101;-88
2022/08/17 13:28:20;;;;;;;5.85;3.28;;;30.70;99.90;;;;;;5118158;28;20115;-88
2022/08/17 13:31:27;;;;;;;3.53;2.80;;;31.40;99.90;;;;;;5137587;28;20081;-82
2022/08/17 13:34:18;;;;;;;;;;;32.20;99.90;;;;;;5132239;28;20069;-88
2022/08/17 13:37:31;;;;;;;3.30;3.00;;;32.80;99.90;;;;;;5109960;28;19935;-86
2022/08/17 13:40:18;;;;;;;4.45;2.80;;;33.30;99.90;;;;;;5112629;27;20154;-87
2022/08/17 13:43:06;;;;;;;3.05;2.63;;;33.40;99.90;;;;;;5118789;27;20048;-89
2022/08/17 13:46:07;;;;;;;3.40;2.70;;;34.60;99.90;;;;;;5111134;28;20462;-90
2022/08/17 13:49:02;;;;;;;3.97;2.60;;;36.00;99.90;;;;;;5115620;28;20454;-89
2022/08/17 13:51:49;;;;;;;5.30;2.58;;;36.50;99.90;;;;;;5108815;28;20036;-88
2022/08/17 13:54:41;;;;;;;3.20;2.42;;;36.00;99.90;;;;;;5114377;27;20043;-87
2022/08/17 13:57:29;;;;;;;3.05;2.58;;;36.30;99.90;;;;;;5108092;27;20141;-87
2022/08/17 14:00:31;;;;;;;2.60;2.15;;;37.10;99.90;;;;;;5113722;27;20054;-85
2022/08/17 14:03:21;;;;;;;4.15;2.58;;;38.10;99.90;;;;;;5095687;27;20059;-91
2022/08/17 14:06:09;;;;;;;3.07;2.67;;;36.90;99.90;;;;;;5115639;27;20377;-89
2022/08/17 14:08:56;;;;;;;4.95;2.88;;;36.20;99.90;;;;;;5124880;27;20296;-89
2022/08/17 14:11:49;;;;;;;3.13;2.80;;;35.50;99.90;;;;;;5118970;27;20051;-89
2022/08/17 14:14:37;;;;;;;2.67;2.45;;;35.40;99.90;;;;;;5095861;28;20043;-88
2022/08/17 14:17:27;;;;;;;3.20;2.67;;;35.40;99.90;;;;;;5108858;28;20052;-89
2022/08/17 14:20:18;;;;;;;3.70;2.63;;;36.20;99.90;;;;;;5113283;27;20468;-88
2022/08/17 14:23:08;;;;;;;4.72;2.65;;;36.60;99.90;;;;;;5107731;27;20055;-88
2022/08/17 14:25:55;;;;;;;3.97;2.65;;;36.00;99.90;;;;;;5105696;28;20052;-85
2022/08/17 14:28:45;;;;;;;3.28;2.30;;;35.70;99.90;;;;;;5109049;27;20046;-88
2022/08/17 14:31:40;;;;;;;2.55;2.25;;;35.50;99.90;;;;;;5115374;27;20101;-88
2022/08/17 14:34:34;;;;;;;3.13;2.83;;;35.10;99.90;;;;;;5106666;27;20046;-83
2022/08/17 14:37:26;;;;;;;2.83;2.53;;;34.60;99.90;;;;;;5122239;28;20052;-89
2022/08/17 14:40:15;;;;;;;2.88;2.30;;;34.80;99.90;;;;;;5114466;28;20103;-89
2022/08/17 14:43:02;;;;;;;3.40;2.45;;;34.90;99.90;;;;;;5124817;28;20063;-89
2022/08/17 14:45:50;;;;;;;2.90;2.70;;;34.60;99.90;;;;;;5122160;27;20048;-90
2022/08/17 14:48:40;;;;;;;4.85;2.65;;;34.80;99.90;;;;;;5115442;28;20071;-87
2022/08/17 14:51:28;;;;;;;3.35;2.63;;;33.50;99.90;;;;;;5099990;28;20040;-85
2022/08/17 14:54:17;;;;;;;3.60;2.47;;;32.10;99.90;;;;;;5109662;28;20097;-87
2022/08/17 14:57:22;;;;;;;3.67;2.58;;;31.70;99.90;;;;;;5109653;28;20051;-89
2022/08/17 15:00:22;;;;;;;3.78;3.00;;;32.30;99.90;;;;;;5101811;28;20080;-88
2022/08/17 15:03:22;;;;;;;3.13;2.80;;;32.60;99.90;;;;;;5114569;27;20092;-87
2022/08/17 15:06:13;;;;;;;3.38;2.83;;;32.50;99.90;;;;;;5116374;27;20071;-89
2022/08/17 15:09:02;;;;;;;3.90;3.00;;;32.20;99.90;;;;;;5110689;27;20469;-88
2022/08/17 15:11:50;;;;;;;4.38;3.10;;;31.40;99.90;;;;;;5099122;28;20062;-87
2022/08/17 15:14:40;;;;;;;3.42;3.13;;;30.90;99.90;;;;;;5101005;27;20054;-87
2022/08/17 15:17:29;;;;;;;5.18;3.55;;;30.60;99.90;;;;;;5109932;28;20051;-87
2022/08/17 15:20:37;;;;;;;3.63;2.65;;;30.20;99.90;;;;;;5115647;27;20385;-88
2022/08/17 15:23:25;;;;;;;7.97;3.10;;;30.10;99.90;;;;;;5117364;27;20055;-88
2022/08/17 15:26:15;;;;;;;5.07;3.15;;;30.40;99.90;;;;;;5100074;28;20366;-87
2022/08/17 15:29:08;;;;;;;5.55;3.03;;;30.80;99.90;;;;;;5106904;28;20051;-87
2022/08/17 15:31:59;;;;;;;4.97;2.97;;;30.90;99.90;;;;;;5096157;28;20059;-87
2022/08/17 15:34:48;;;;;;;4.40;3.10;;;31.20;99.90;;;;;;5107495;28;20373;-88
2022/08/17 15:37:37;;;;;;;3.53;3.20;;;31.80;99.90;;;;;;5113100;28;20043;-89
2022/08/17 15:40:24;;;;;;;4.45;2.95;;;31.80;99.90;;;;;;5101852;28;20195;-89
2022/08/17 15:43:14;;;;;;;4.10;2.53;;;31.20;99.90;;;;;;5109121;28;20047;-89
2022/08/17 15:46:09;;;;;;;3.58;2.58;;;30.40;99.90;;;;;;5109111;28;20403;-88
2022/08/17 15:48:57;;;;;;;3.45;3.15;;;29.70;99.90;;;;;;5095543;28;20139;-90
2022/08/17 15:51:44;;;;;;;3.60;2.90;;;29.00;99.90;;;;;;5104954;27;20035;-91
2022/08/17 15:54:32;;;;;;;6.15;2.95;;;28.50;99.90;;;;;;5118008;27;20050;-90